Time;durP1;ratioP1;P1;durP2;ratioP2;P2;SDS_P1;SDS_P2;PMS_P1;PMS_P2;Temp;Humidity;BMP_temperature;BMP_pressure;BME280_temperature;BME280_humidity;BME280_pressure;Samples;Min_cycle;Max_cycle;Signal;HPM_P1;HPM_P2
2021/04/15 00:00:31;;;;;;;5.97;0.93;;;;;;;0.59;48.86;103013.44;5016037;28;20038;-67
2021/04/15 00:03:05;;;;;;;5.50;1.08;;;;;;;0.63;48.88;103015.28;5021494;28;20288;-69
2021/04/15 00:05:31;;;;;;;2.58;0.82;;;;;;;0.54;48.87;103017.53;5017140;28;20038;-67
2021/04/15 00:07:57;;;;;;;1.88;0.82;;;;;;;0.53;48.78;103015.78;5002749;28;20044;-67
2021/04/15 00:10:30;;;;;;;1.88;0.93;;;;;;;0.45;48.68;103019.78;5021521;28;20025;-67
2021/04/15 00:12:56;;;;;;;4.82;0.85;;;;;;;0.26;48.90;103013.97;5017179;28;20042;-68
2021/04/15 00:15:22;;;;;;;4.38;0.85;;;;;;;0.15;49.07;103015.25;5022574;28;20049;-67
2021/04/15 00:17:48;;;;;;;3.15;0.77;;;;;;;0.20;49.19;103024.00;5018314;28;20033;-68
2021/04/15 00:20:14;;;;;;;3.60;0.80;;;;;;;0.21;49.03;103010.34;5020002;28;20095;-69
2021/04/15 00:22:40;;;;;;;6.05;0.80;;;;;;;0.32;48.94;103007.28;5023304;28;20164;-68
2021/04/15 00:25:06;;;;;;;1.65;0.60;;;;;;;0.26;48.88;103013.97;5021028;28;20037;-66
2021/04/15 00:27:32;;;;;;;2.58;0.50;;;;;;;0.24;48.87;103012.16;5016991;28;20080;-67
2021/04/15 00:29:57;;;;;;;2.92;0.68;;;;;;;0.17;48.89;103007.59;5018812;28;20050;-67
2021/04/15 00:32:23;;;;;;;2.72;1.08;;;;;;;0.16;48.90;103011.84;5015384;28;20034;-70
2021/04/15 00:34:48;;;;;;;2.95;0.63;;;;;;;0.12;48.97;103014.25;5021153;28;20041;-66
2021/04/15 00:37:14;;;;;;;4.10;0.65;;;;;;;0.18;48.87;103014.50;5020410;28;20805;-69
2021/04/15 00:39:39;;;;;;;1.83;0.73;;;;;;;0.20;48.70;103011.16;5021045;28;20045;-68
2021/04/15 00:42:05;;;;;;;1.52;0.57;;;;;;;0.24;48.90;103013.03;5020436;28;20040;-69
2021/04/15 00:44:31;;;;;;;3.40;0.93;;;;;;;0.19;48.92;103014.56;5018028;28;20372;-68
2021/04/15 00:47:01;;;;;;;2.13;0.60;;;;;;;0.19;48.69;103009.41;5017968;28;20399;-68
2021/04/15 00:49:32;;;;;;;5.38;0.75;;;;;;;0.12;48.91;103007.41;5017894;28;20079;-67
2021/04/15 00:52:05;;;;;;;3.08;0.77;;;;;;;0.23;48.50;103013.84;5018671;28;20037;-68
2021/04/15 00:54:45;;;;;;;3.70;0.57;;;;;;;0.18;48.62;103010.22;5021297;28;20323;-69
2021/04/15 00:57:16;;;;;;;2.25;0.98;;;;;;;0.12;48.64;103007.41;5024248;28;20029;-69
2021/04/15 00:59:42;;;;;;;1.87;0.90;;;;;;;0.15;48.40;103004.09;5032856;28;20124;-67
2021/04/15 01:02:10;;;;;;;4.30;1.13;;;;;;;0.25;48.44;103011.31;5019220;28;20736;-66
2021/04/15 01:04:37;;;;;;;1.20;0.40;;;;;;;0.16;48.31;103005.84;5019173;28;20044;-67
2021/04/15 01:07:03;;;;;;;2.13;0.63;;;;;;;0.17;48.32;103003.34;5022427;28;20192;-68
2021/04/15 01:09:28;;;;;;;2.78;0.93;;;;;;;0.16;48.21;103006.69;5016495;28;20531;-67
2021/04/15 01:11:59;;;;;;;2.70;0.73;;;;;;;0.15;48.26;103007.53;5017482;28;20034;-67
2021/04/15 01:14:37;;;;;;;8.05;1.02;;;;;;;0.10;48.25;103003.94;5017194;28;20029;-69
2021/04/15 01:17:16;;;;;;;2.25;0.60;;;;;;;-0.02;48.34;103000.88;5015220;28;20038;-68
2021/04/15 01:20:00;;;;;;;6.03;0.68;;;;;;;0.03;48.31;103001.91;5022375;28;20078;-69
2021/04/15 01:22:37;;;;;;;2.58;0.95;;;;;;;-0.01;48.36;103010.34;5017086;28;20480;-68
2021/04/15 01:25:08;;;;;;;2.08;0.50;;;;;;;-0.10;48.26;103007.41;5020229;28;20060;-68
2021/04/15 01:27:57;;;;;;;2.30;0.80;;;;;;;-0.07;48.50;103003.28;5002726;28;20408;-66
2021/04/15 01:30:23;;;;;;;3.60;1.00;;;;;;;-0.04;48.28;103002.50;5016062;28;20056;-70
2021/04/15 01:32:57;;;;;;;4.93;0.65;;;;;;;-0.13;48.48;103006.47;5018484;28;20076;-67
2021/04/15 01:35:38;;;;;;;2.67;0.68;;;;;;;-0.11;48.47;103008.25;5023852;28;20034;-66
2021/04/15 01:38:04;;;;;;;2.10;0.85;;;;;;;-0.26;48.73;103006.84;5019351;28;20038;-67
2021/04/15 01:40:53;;;;;;;3.42;1.30;;;;;;;-0.32;48.86;103001.44;5014663;28;20136;-67
2021/04/15 01:43:27;;;;;;;3.78;0.73;;;;;;;-0.29;48.91;103006.69;5018034;28;20033;-68
2021/04/15 01:45:54;;;;;;;5.10;1.15;;;;;;;-0.27;48.95;103007.63;5004746;28;20034;-68
2021/04/15 01:48:24;;;;;;;2.92;0.68;;;;;;;-0.31;49.06;103012.59;5020844;28;20175;-67
2021/04/15 01:51:17;;;;;;;2.03;0.50;;;;;;;-0.21;48.99;103007.88;5019047;28;20855;-67
2021/04/15 01:53:59;;;;;;;3.13;0.73;;;;;;;-0.21;48.65;103014.72;5016183;28;20037;-68
2021/04/15 01:56:30;;;;;;;1.98;0.52;;;;;;;-0.22;48.73;103010.38;5017071;28;20136;-67
2021/04/15 01:59:03;;;;;;;1.85;0.75;;;;;;;-0.21;48.40;103012.16;5018349;28;20037;-68
2021/04/15 02:01:35;;;;;;;4.20;0.73;;;;;;;-0.25;48.49;103013.72;5012974;28;20026;-67
2021/04/15 02:04:06;;;;;;;6.20;1.05;;;;;;;-0.33;48.98;103012.53;5020661;28;20042;-68
2021/04/15 02:06:35;;;;;;;3.90;0.90;;;;;;;-0.44;49.28;103016.38;5015285;28;20091;-68
2021/04/15 02:09:06;;;;;;;4.78;0.80;;;;;;;-0.33;48.88;103015.09;5015754;28;20056;-68
2021/04/15 02:11:57;;;;;;;1.98;0.40;;;;;;;-0.26;48.71;103011.97;5018215;28;20037;-68
2021/04/15 02:14:27;;;;;;;2.28;0.43;;;;;;;-0.35;48.72;103012.50;5020502;28;20030;-67
2021/04/15 02:16:54;;;;;;;1.33;0.50;;;;;;;-0.27;48.70;103009.34;5021543;28;20029;-68
2021/04/15 02:19:37;;;;;;;2.80;0.90;;;;;;;-0.24;48.73;103020.59;5014282;28;20100;-68
2021/04/15 02:22:33;;;;;;;2.80;0.80;;;;;;;-0.24;48.58;103015.47;5017396;28;20426;-66
2021/04/15 02:25:09;;;;;;;2.88;0.52;;;;;;;-0.26;48.62;103013.66;5018811;28;20034;-68
2021/04/15 02:27:45;;;;;;;5.60;0.95;;;;;;;-0.32;48.57;103014.31;5016879;28;20033;-67
2021/04/15 02:30:15;;;;;;;1.65;0.47;;;;;;;-0.42;48.71;103019.88;5019116;28;20087;-68
2021/04/15 02:32:47;;;;;;;3.38;1.10;;;;;;;-0.41;48.73;103017.38;5014843;28;20045;-67
2021/04/15 02:35:27;;;;;;;3.20;0.68;;;;;;;-0.43;48.68;103007.84;5021573;28;20049;-69
2021/04/15 02:37:58;;;;;;;2.00;0.98;;;;;;;-0.46;48.62;103015.41;5004750;28;20040;-66
2021/04/15 02:40:27;;;;;;;3.00;0.50;;;;;;;-0.39;48.51;103018.31;5022365;28;20045;-67
2021/04/15 02:42:55;;;;;;;2.47;0.82;;;;;;;-0.44;48.37;103012.09;5015826;28;20026;-67
2021/04/15 02:45:30;;;;;;;3.95;0.90;;;;;;;-0.51;48.63;103001.53;5016505;28;20088;-68
2021/04/15 02:48:21;;;;;;;1.55;0.50;;;;;;;-0.46;48.51;103015.41;5020866;28;20051;-69
2021/04/15 02:50:47;;;;;;;3.10;0.80;;;;;;;-0.45;48.58;103012.06;5017769;28;20033;-69
2021/04/15 02:53:24;;;;;;;2.45;0.47;;;;;;;-0.40;48.36;103018.25;5016047;28;20525;-69
2021/04/15 02:56:03;;;;;;;2.58;0.50;;;;;;;-0.51;48.52;103019.50;5018209;28;20461;-67
2021/04/15 02:58:45;;;;;;;1.98;0.50;;;;;;;-0.51;48.32;103019.50;5015847;28;20041;-67
2021/04/15 03:01:15;;;;;;;3.50;0.60;;;;;;;-0.55;48.49;103018.50;5017954;28;20033;-67
2021/04/15 03:03:44;;;;;;;5.20;0.50;;;;;;;-0.63;48.27;103031.03;5018134;28;20126;-68
2021/04/15 03:06:14;;;;;;;4.35;0.90;;;;;;;-0.69;48.28;103025.63;5014131;28;20030;-67
2021/04/15 03:08:42;;;;;;;4.13;0.90;;;;;;;-0.67;48.51;103026.59;5014869;28;20057;-67
2021/04/15 03:11:27;;;;;;;2.05;0.55;;;;;;;-0.71;48.59;103026.41;5016635;28;20048;-68
2021/04/15 03:13:57;;;;;;;2.05;0.75;;;;;;;-0.65;48.51;103026.66;5014987;28;20139;-67
2021/04/15 03:16:31;;;;;;;5.70;0.85;;;;;;;-0.69;48.55;103030.78;5016743;28;20061;-68
2021/04/15 03:19:25;;;;;;;6.63;1.67;;;;;;;-0.74;48.60;103029.72;5019251;28;20410;-67
2021/04/15 03:22:16;;;;;;;2.78;0.80;;;;;;;-0.83;48.90;103025.06;5014354;28;20076;-68
2021/04/15 03:24:45;;;;;;;5.80;0.95;;;;;;;-0.78;48.74;103035.53;5012933;28;20041;-67
2021/04/15 03:27:34;;;;;;;1.30;0.52;;;;;;;-0.80;48.57;103034.59;5020782;28;20037;-69
2021/04/15 03:30:40;;;;;;;5.05;0.73;;;;;;;-0.84;48.60;103030.13;5016316;28;20046;-68
2021/04/15 03:33:16;;;;;;;4.05;0.88;;;;;;;-0.77;48.52;103042.44;4982997;28;20042;-68
2021/04/15 03:35:53;;;;;;;3.40;0.85;;;;;;;-0.82;48.47;103038.78;5014048;28;20136;-67
2021/04/15 03:38:23;;;;;;;4.13;0.63;;;;;;;-0.84;48.55;103046.44;5019427;28;20751;-67
2021/04/15 03:40:54;;;;;;;5.47;0.88;;;;;;;-0.77;48.55;103039.88;5021637;28;20038;-67
2021/04/15 03:43:25;;;;;;;4.25;1.02;;;;;;;-0.85;48.63;103043.78;5012583;28;20033;-66
2021/04/15 03:46:08;;;;;;;3.15;0.88;;;;;;;-0.78;48.52;103045.81;5015926;28;20436;-66
2021/04/15 03:48:42;;;;;;;3.03;0.82;;;;;;;-0.93;48.38;103040.00;5012541;28;20045;-67
2021/04/15 03:51:24;;;;;;;2.72;1.02;;;;;;;-1.06;48.62;103039.50;5013340;28;20449;-69
2021/04/15 03:54:02;;;;;;;3.58;0.73;;;;;;;-1.20;48.85;103046.59;5015137;28;20042;-68
2021/04/15 03:56:31;;;;;;;3.75;0.93;;;;;;;-1.09;48.42;103052.16;5019324;28;20040;-67
2021/04/15 03:59:02;;;;;;;4.88;1.33;;;;;;;-0.94;48.58;103053.69;5002297;28;20041;-67
2021/04/15 04:01:33;;;;;;;2.30;0.57;;;;;;;-1.09;48.89;103052.16;5013685;28;20033;-67
2021/04/15 04:04:01;;;;;;;3.88;0.75;;;;;;;-0.98;48.67;103053.53;5018291;28;20029;-66
2021/04/15 04:06:28;;;;;;;2.40;0.60;;;;;;;-0.99;48.68;103056.91;5019500;28;20088;-67
2021/04/15 04:09:04;;;;;;;5.32;1.38;;;;;;;-0.99;48.56;103061.19;5013285;28;20088;-66
2021/04/15 04:11:33;;;;;;;2.78;1.02;;;;;;;-1.02;48.62;103061.94;5032145;28;20486;-67
2021/04/15 04:14:12;;;;;;;2.13;0.65;;;;;;;-0.97;48.62;103062.13;5014138;28;20089;-66
2021/04/15 04:16:49;;;;;;;3.80;0.93;;;;;;;-1.01;48.73;103062.81;5019122;28;20033;-66
2021/04/15 04:19:27;;;;;;;5.55;1.50;;;;;;;-1.09;48.83;103075.25;5012152;28;20148;-68
2021/04/15 04:22:14;;;;;;;5.15;1.42;;;;;;;-1.03;48.59;103070.44;5016341;28;20044;-69
2021/04/15 04:24:40;;;;;;;2.65;1.17;;;;;;;-1.07;48.73;103071.06;5019689;28;20038;-68
2021/04/15 04:27:20;;;;;;;3.60;1.10;;;;;;;-1.03;48.61;103080.69;5016740;28;20060;-67
2021/04/15 04:29:55;;;;;;;5.82;1.20;;;;;;;-1.05;48.81;103076.31;5018425;28;20099;-69
2021/04/15 04:32:23;;;;;;;3.50;1.10;;;;;;;-1.04;48.68;103078.97;5018693;28;20052;-67
2021/04/15 04:34:52;;;;;;;4.35;1.20;;;;;;;-1.08;48.69;103084.72;5018102;28;20079;-67
2021/04/15 04:37:19;;;;;;;1.98;1.00;;;;;;;-0.92;48.57;103088.88;5021719;28;20041;-68
2021/04/15 04:39:45;;;;;;;4.13;1.00;;;;;;;-0.95;48.33;103088.75;5002733;28;20072;-69
2021/04/15 04:42:37;;;;;;;3.75;1.10;;;;;;;-0.93;48.58;103088.78;5004865;28;20041;-67
2021/04/15 04:45:03;;;;;;;2.20;0.80;;;;;;;-0.87;48.53;103086.50;5023087;28;20037;-69
2021/04/15 04:47:40;;;;;;;4.38;1.10;;;;;;;-0.80;48.42;103089.38;5017713;28;20064;-69
2021/04/15 04:50:24;;;;;;;3.05;1.48;;;;;;;-0.94;48.71;103090.50;5024281;28;20810;-66
2021/04/15 04:53:02;;;;;;;5.13;1.27;;;;;;;-0.89;48.58;103095.81;5022508;28;20137;-66
2021/04/15 04:55:37;;;;;;;5.43;1.30;;;;;;;-0.90;48.60;103096.66;5021395;28;20037;-67
2021/04/15 04:58:09;;;;;;;11.38;1.65;;;;;;;-0.77;48.32;103088.66;5005016;28;20057;-67
2021/04/15 05:00:37;;;;;;;;;;;;;;;-0.70;48.16;103092.38;5017088;28;20045;-68
2021/04/15 05:03:03;;;;;;;5.50;1.38;;;;;;;-0.61;48.31;103093.63;5020336;28;19913;-67
2021/04/15 05:05:30;;;;;;;3.97;1.48;;;;;;;-0.58;47.98;103098.88;5017191;28;20148;-67
2021/04/15 05:08:01;;;;;;;4.60;1.13;;;;;;;-0.56;48.05;103102.41;5016493;28;20042;-67
2021/04/15 05:10:30;;;;;;;1.92;0.77;;;;;;;-0.48;48.05;103099.25;5017919;28;20026;-67
2021/04/15 05:13:07;;;;;;;5.93;1.38;;;;;;;-0.36;47.95;103102.34;5013670;28;20491;-67
2021/04/15 05:15:34;;;;;;;6.15;1.55;;;;;;;-0.30;47.68;103107.75;5020836;28;20061;-68
2021/04/15 05:18:00;;;;;;;3.30;1.45;;;;;;;-0.30;47.41;103105.19;5006899;28;20072;-67
2021/04/15 05:20:27;;;;;;;2.75;0.80;;;;;;;-0.31;47.57;103112.81;5019679;28;20032;-70
2021/04/15 05:23:05;;;;;;;7.18;1.88;;;;;;;-0.15;47.54;103113.53;5021990;28;20189;-67
2021/04/15 05:25:40;;;;;;;7.10;2.05;;;;;;;0.90;47.82;103107.19;5018445;28;20033;-67
2021/04/15 05:28:11;;;;;;;10.73;1.92;;;;;;;3.56;43.72;103108.53;5022946;28;20092;-70
2021/04/15 05:30:44;;;;;;;4.25;1.40;;;;;;;6.20;37.67;103105.06;5008891;28;20044;-67
2021/04/15 05:33:20;;;;;;;7.07;1.23;;;;;;;8.10;33.39;103106.16;5018144;28;20041;-67
2021/04/15 05:35:53;;;;;;;9.07;1.30;;;;;;;9.13;29.58;103103.13;5019360;28;20375;-68
2021/04/15 05:38:19;;;;;;;2.05;0.65;;;;;;;10.26;30.10;103103.91;5018064;28;20517;-68
2021/04/15 05:40:50;;;;;;;5.63;1.52;;;;;;;11.25;25.56;103110.44;5020520;28;21360;-68
2021/04/15 05:43:34;;;;;;;4.43;1.02;;;;;;;12.21;25.33;103106.06;5016360;28;20068;-66
2021/04/15 05:46:09;;;;;;;6.03;1.83;;;;;;;13.40;23.59;103107.94;5019287;28;20041;-68
2021/04/15 05:48:37;;;;;;;6.47;2.03;;;;;;;14.41;22.48;103115.81;5020260;28;20065;-68
2021/04/15 05:51:09;;;;;;;3.95;2.28;;;;;;;13.76;22.79;103110.84;5013606;28;20644;-67
2021/04/15 05:53:42;;;;;;;2.13;1.48;;;;;;;13.28;23.68;103110.78;5025817;28;20034;-67
2021/04/15 05:56:16;;;;;;;4.50;1.77;;;;;;;13.29;24.11;103112.50;5035777;28;20072;-68
2021/04/15 05:58:56;;;;;;;2.40;1.70;;;;;;;13.42;24.52;103111.41;5035855;28;20048;-69
2021/04/15 06:01:30;;;;;;;3.78;1.88;;;;;;;14.54;23.08;103117.28;5034298;28;20041;-68
2021/04/15 06:04:20;;;;;;;4.63;1.23;;;;;;;15.74;21.08;103116.22;5029328;28;20056;-69
2021/04/15 06:06:47;;;;;;;3.53;1.63;;;;;;;16.70;20.58;103112.63;5026266;28;20617;-67
2021/04/15 06:09:13;;;;;;;4.13;1.85;;;;;;;16.83;20.70;103115.78;4998219;28;20033;-68
2021/04/15 06:11:55;;;;;;;2.60;1.70;;;;;;;17.05;20.13;103123.91;5024929;28;20116;-68
2021/04/15 06:14:40;;;;;;;6.15;2.08;;;;;;;17.59;20.26;103122.16;5015448;28;20477;-67
2021/04/15 06:17:29;;;;;;;4.47;1.88;;;;;;;17.95;20.38;103122.63;5017558;28;20037;-67
2021/04/15 06:20:14;;;;;;;6.80;1.55;;;;;;;18.09;20.39;103123.91;5015845;28;20068;-68
2021/04/15 06:22:48;;;;;;;4.97;1.20;;;;;;;18.64;19.77;103127.16;5017032;28;20037;-67
2021/04/15 06:25:21;;;;;;;4.50;1.67;;;;;;;20.10;19.07;103118.44;5019267;28;20033;-69
2021/04/15 06:27:50;;;;;;;4.55;1.80;;;;;;;20.32;17.93;103124.50;5015128;28;20593;-68
2021/04/15 06:30:22;;;;;;;3.22;1.85;;;;;;;20.73;17.57;103129.69;5018059;28;20468;-68
2021/04/15 06:32:54;;;;;;;3.45;2.03;;;;;;;20.31;17.20;103124.63;5014633;28;20046;-67
2021/04/15 06:35:31;;;;;;;2.42;2.15;;;;;;;20.51;17.67;103137.81;5017985;28;20787;-68
2021/04/15 06:38:05;;;;;;;3.40;2.83;;;;;;;21.50;16.98;103130.41;5016221;28;20078;-69
2021/04/15 06:41:02;;;;;;;2.20;1.30;;;;;;;21.84;16.71;103133.97;5017448;28;20052;-68
2021/04/15 06:43:51;;;;;;;7.90;2.10;;;;;;;21.56;16.89;103138.09;5019345;28;20041;-68
2021/04/15 06:46:34;;;;;;;3.58;1.55;;;;;;;20.93;17.72;103136.75;5007683;28;20046;-68
2021/04/15 06:49:26;;;;;;;8.18;1.83;;;;;;;21.28;17.37;103128.78;5017791;28;20133;-69
2021/04/15 06:51:51;;;;;;;;;;;;;;;21.81;16.74;103132.34;5015697;28;20036;-68
2021/04/15 06:54:33;;;;;;;3.20;1.40;;;;;;;21.49;16.93;103134.88;5017026;28;20395;-69
2021/04/15 06:57:22;;;;;;;3.67;1.95;;;;;;;20.98;17.51;103133.84;5019369;28;20029;-67
2021/04/15 07:00:25;;;;;;;4.72;2.20;;;;;;;22.09;16.53;103139.75;5016808;28;20041;-67
2021/04/15 07:03:11;;;;;;;3.38;1.30;;;;;;;22.20;16.00;103136.47;5020767;28;20168;-68
2021/04/15 07:06:00;;;;;;;9.38;1.77;;;;;;;23.20;15.11;103134.41;5026977;28;20086;-67
2021/04/15 07:08:44;;;;;;;2.35;1.15;;;;;;;22.28;15.96;103136.09;5015245;28;20502;-69
2021/04/15 07:11:31;;;;;;;4.18;1.60;;;;;;;21.82;15.88;103142.03;5022995;28;20507;-67
2021/04/15 07:14:19;;;;;;;3.85;2.50;;;;;;;21.05;16.54;103142.38;5027037;28;20047;-68
2021/04/15 07:17:18;;;;;;;3.33;1.45;;;;;;;21.77;15.71;103144.06;5024037;28;20034;-69
2021/04/15 07:20:11;;;;;;;4.95;1.48;;;;;;;22.88;15.45;103144.28;5017113;28;20817;-68
2021/04/15 07:22:55;;;;;;;4.72;1.95;;;;;;;21.69;16.28;103141.81;4986686;28;20499;-67
2021/04/15 07:25:29;;;;;;;2.50;1.33;;;;;;;20.70;15.90;103136.94;5018032;28;20034;-68
2021/04/15 07:28:15;;;;;;;6.00;1.77;;;;;;;20.86;16.49;103145.91;5018947;28;20096;-68
2021/04/15 07:30:59;;;;;;;5.95;1.33;;;;;;;21.49;15.70;103140.19;5018859;28;20037;-67
2021/04/15 07:33:49;;;;;;;2.85;1.42;;;;;;;21.23;15.98;103151.25;5015868;28;20041;-69
2021/04/15 07:36:15;;;;;;;1.80;0.80;;;;;;;21.23;15.81;103154.75;5017626;28;20040;-66
2021/04/15 07:38:58;;;;;;;2.55;1.17;;;;;;;21.96;16.54;103157.28;5017850;28;20121;-68
2021/04/15 07:41:50;;;;;;;4.22;1.20;;;;;;;21.04;16.34;103149.50;5022590;28;20069;-69
2021/04/15 07:44:31;;;;;;;6.13;1.05;;;;;;;21.18;16.09;103153.25;5021506;28;20179;-68
2021/04/15 07:47:08;;;;;;;3.53;1.42;;;;;;;21.24;15.17;103159.13;5020654;28;20104;-70
2021/04/15 07:49:49;;;;;;;4.68;1.00;;;;;;;20.86;15.81;103167.19;5020993;28;20586;-69
2021/04/15 07:52:47;;;;;;;1.13;0.47;;;;;;;21.05;16.11;103164.50;5018436;28;20391;-69
2021/04/15 07:55:25;;;;;;;1.23;0.60;;;;;;;21.98;14.44;103163.41;5016857;28;20811;-67
2021/04/15 07:57:53;;;;;;;3.65;1.52;;;;;;;20.88;15.31;103165.31;5017340;28;20047;-68
2021/04/15 08:00:31;;;;;;;4.38;1.02;;;;;;;20.76;15.52;103155.25;5019122;28;20037;-69
2021/04/15 08:03:21;;;;;;;2.80;0.60;;;;;;;22.11;15.66;103169.78;5022279;28;20117;-67
2021/04/15 08:06:01;;;;;;;3.60;0.50;;;;;;;22.24;13.63;103163.81;5022527;28;20037;-69
2021/04/15 08:08:35;;;;;;;2.88;0.40;;;;;;;21.94;13.90;103160.03;5022972;28;20034;-68
2021/04/15 08:11:35;;;;;;;2.38;0.43;;;;;;;21.98;14.02;103166.06;5020073;28;20053;-68
2021/04/15 08:14:45;;;;;;;2.75;0.60;;;;;;;21.84;14.41;103160.59;5016994;28;20591;-68
2021/04/15 08:17:46;;;;;;;3.33;0.90;;;;;;;20.20;15.25;103167.53;4945787;28;20099;-69
2021/04/15 08:20:24;;;;;;;3.13;0.55;;;;;;;19.94;16.32;103166.03;5021741;28;20650;-68
2021/04/15 08:23:14;;;;;;;3.60;0.95;;;;;;;20.94;15.31;103164.16;5021030;28;20530;-69
2021/04/15 08:26:17;;;;;;;2.83;0.50;;;;;;;20.97;15.10;103166.66;5026194;28;20077;-68
2021/04/15 08:28:48;;;;;;;4.47;1.08;;;;;;;20.58;15.28;103170.28;5017765;28;20034;-67
2021/04/15 08:31:47;;;;;;;3.50;0.68;;;;;;;20.88;15.51;103170.63;5022810;28;20045;-68
2021/04/15 08:34:36;;;;;;;3.17;0.90;;;;;;;19.49;15.37;103175.00;5022750;28;20045;-68
2021/04/15 08:37:27;;;;;;;1.55;0.30;;;;;;;19.53;14.31;103173.13;5023383;28;20479;-67
2021/04/15 08:40:40;;;;;;;3.08;0.52;;;;;;;19.84;15.38;103176.22;5016228;28;20041;-69
2021/04/15 08:43:23;;;;;;;2.90;0.60;;;;;;;19.45;15.93;103173.41;4983317;28;20042;-67
2021/04/15 08:46:04;;;;;;;4.55;0.93;;;;;;;19.21;16.10;103165.56;5021218;28;20120;-68
2021/04/15 08:48:34;;;;;;;3.92;0.63;;;;;;;19.43;14.70;103176.13;5015574;28;20048;-67
2021/04/15 08:51:38;;;;;;;2.60;0.28;;;;;;;18.58;15.12;103169.78;5018477;28;20079;-67
2021/04/15 08:54:30;;;;;;;1.25;0.38;;;;;;;18.76;15.01;103174.34;5016723;28;20034;-68
2021/04/15 08:56:59;;;;;;;4.43;0.30;;;;;;;17.33;15.67;103162.63;5021780;28;20060;-69
2021/04/15 08:59:33;;;;;;;1.80;0.30;;;;;;;16.65;16.94;103164.72;5028908;28;20037;-69
2021/04/15 09:02:09;;;;;;;1.08;0.20;;;;;;;16.50;17.79;103166.00;5012890;28;20068;-69
2021/04/15 09:04:47;;;;;;;1.23;0.20;;;;;;;16.06;18.10;103167.25;5025770;28;20351;-68
2021/04/15 09:07:32;;;;;;;1.00;0.15;;;;;;;15.36;18.00;103170.75;5022450;28;20087;-66
2021/04/15 09:10:17;;;;;;;4.18;0.20;;;;;;;14.41;18.95;103162.25;5018499;28;20045;-67
2021/04/15 09:13:04;;;;;;;1.67;0.30;;;;;;;14.84;19.43;103169.28;5020791;28;20036;-67
2021/04/15 09:15:55;;;;;;;0.82;0.30;;;;;;;14.91;18.58;103168.25;5015009;28;20129;-68
2021/04/15 09:18:39;;;;;;;1.45;0.50;;;;;;;14.25;19.60;103170.41;5015366;28;20132;-67
2021/04/15 09:21:14;;;;;;;2.22;0.20;;;;;;;14.07;18.61;103166.38;5001202;28;20045;-67
2021/04/15 09:23:49;;;;;;;0.60;0.20;;;;;;;14.55;16.69;103168.13;5024915;28;20021;-68
2021/04/15 09:26:19;;;;;;;0.90;0.20;;;;;;;14.73;18.34;103166.88;5021040;28;20048;-68
2021/04/15 09:29:08;;;;;;;2.25;0.20;;;;;;;13.38;18.86;103161.41;5021990;28;20728;-68
2021/04/15 09:31:49;;;;;;;0.68;0.20;;;;;;;12.24;21.15;103174.19;5023671;28;20101;-68
2021/04/15 09:34:41;;;;;;;0.70;0.38;;;;;;;12.46;20.57;103168.72;5019001;28;20029;-67
2021/04/15 09:37:10;;;;;;;0.40;0.20;;;;;;;13.94;19.36;103173.63;5021211;28;20048;-67
2021/04/15 09:40:11;;;;;;;0.40;0.20;;;;;;;14.49;18.97;103170.88;5021141;28;20037;-67
2021/04/15 09:42:55;;;;;;;0.30;0.10;;;;;;;14.63;18.21;103179.34;5023574;28;20041;-68
2021/04/15 09:45:24;;;;;;;1.63;0.20;;;;;;;15.00;17.50;103181.22;5021212;28;20034;-69
2021/04/15 09:48:04;;;;;;;1.92;0.47;;;;;;;15.11;17.59;103180.97;5021944;28;20045;-66
2021/04/15 09:50:54;;;;;;;1.27;0.10;;;;;;;15.61;17.19;103173.66;5016331;28;20050;-68
2021/04/15 09:53:40;;;;;;;1.00;0.50;;;;;;;15.27;16.55;103176.25;5018764;28;20041;-69
2021/04/15 09:56:43;;;;;;;0.52;0.10;;;;;;;15.12;18.18;103177.44;5021899;28;20092;-68
2021/04/15 09:59:33;;;;;;;0.40;0.10;;;;;;;15.07;17.36;103174.91;5017897;28;20042;-67
2021/04/15 10:02:19;;;;;;;0.43;0.10;;;;;;;15.02;16.35;103176.78;5020390;28;20045;-68
2021/04/15 10:04:50;;;;;;;0.40;0.10;;;;;;;14.48;17.69;103166.53;5019752;28;20387;-68
2021/04/15 10:07:31;;;;;;;1.70;0.20;;;;;;;14.10;18.30;103168.09;5021319;28;20041;-68
2021/04/15 10:10:18;;;;;;;1.43;0.10;;;;;;;13.63;18.61;103160.16;5018214;28;20038;-67
2021/04/15 10:13:20;;;;;;;1.30;0.20;;;;;;;13.52;18.05;103170.81;5021015;28;20068;-67
2021/04/15 10:15:55;;;;;;;3.05;0.30;;;;;;;14.35;17.23;103174.63;5015626;28;20107;-68
2021/04/15 10:18:31;;;;;;;0.80;0.20;;;;;;;13.58;18.28;103172.47;5018999;28;20042;-68
2021/04/15 10:21:25;;;;;;;0.40;0.20;;;;;;;13.46;19.84;103175.28;5036237;28;20044;-68
2021/04/15 10:24:00;;;;;;;0.45;0.10;;;;;;;14.24;19.79;103166.06;5017889;28;20045;-69
2021/04/15 10:26:48;;;;;;;2.67;0.13;;;;;;;14.14;18.93;103167.13;5025023;28;20402;-68
2021/04/15 10:29:49;;;;;;;1.10;0.20;;;;;;;14.37;17.61;103169.34;5024134;28;20464;-68
2021/04/15 10:32:43;;;;;;;0.88;0.10;;;;;;;14.92;16.72;103164.69;5020080;28;20043;-67
2021/04/15 10:35:12;;;;;;;1.25;0.30;;;;;;;15.00;18.07;103165.41;5019720;28;20120;-69
2021/04/15 10:38:14;;;;;;;0.77;0.10;;;;;;;15.06;18.79;103165.28;5019215;28;20065;-67
2021/04/15 10:41:02;;;;;;;1.08;0.85;;;;;;;14.49;17.72;103163.00;5018172;28;20479;-68
2021/04/15 10:43:48;;;;;;;2.30;0.10;;;;;;;13.81;19.22;103158.09;5021370;28;20029;-66
2021/04/15 10:46:54;;;;;;;2.05;0.20;;;;;;;14.64;17.57;103157.41;5017107;28;20501;-67
2021/04/15 10:49:44;;;;;;;0.75;0.20;;;;;;;14.20;17.67;103161.75;5004186;28;20076;-67
2021/04/15 10:52:13;;;;;;;0.40;0.13;;;;;;;13.41;18.86;103156.13;5018487;28;20064;-67
2021/04/15 10:54:44;;;;;;;0.63;0.30;;;;;;;14.01;17.17;103149.84;5023862;28;20045;-67
2021/04/15 10:57:30;;;;;;;0.43;0.10;;;;;;;13.29;17.55;103157.16;5026570;28;20041;-69
2021/04/15 10:59:55;;;;;;;0.52;0.20;;;;;;;13.19;18.67;103152.94;5020694;28;20041;-68
2021/04/15 11:02:20;;;;;;;1.15;0.30;;;;;;;12.86;18.97;103156.00;5019828;28;20032;-67
2021/04/15 11:04:47;;;;;;;0.75;0.13;;;;;;;13.08;18.05;103155.72;5020697;28;20029;-69
2021/04/15 11:07:19;;;;;;;0.65;0.15;;;;;;;13.63;17.06;103159.25;5019740;28;20124;-67
2021/04/15 11:09:47;;;;;;;1.85;0.30;;;;;;;13.32;17.08;103162.38;5021861;28;20068;-67
2021/04/15 11:12:15;;;;;;;4.00;0.10;;;;;;;13.09;17.65;103154.81;5023959;28;20073;-69
2021/04/15 11:14:44;;;;;;;0.73;0.10;;;;;;;12.73;20.42;103151.81;5003058;28;20125;-68
2021/04/15 11:17:23;;;;;;;4.50;0.13;;;;;;;13.62;19.71;103152.28;5022570;28;20042;-70
2021/04/15 11:19:58;;;;;;;0.30;0.10;;;;;;;14.16;18.72;103146.94;5019465;28;20486;-66
2021/04/15 11:22:32;;;;;;;0.40;0.10;;;;;;;13.09;19.44;103147.84;5016105;28;20617;-67
2021/04/15 11:25:22;;;;;;;0.30;0.10;;;;;;;13.47;19.04;103150.75;5018964;28;20040;-68
2021/04/15 11:27:49;;;;;;;0.60;0.20;;;;;;;13.51;18.82;103149.81;5015016;28;20491;-69
2021/04/15 11:30:33;;;;;;;0.50;0.10;;;;;;;12.72;19.66;103146.59;5017510;28;20136;-68
2021/04/15 11:32:59;;;;;;;1.10;0.15;;;;;;;13.05;19.88;103138.25;5015706;28;20088;-67
2021/04/15 11:35:25;;;;;;;0.50;0.10;;;;;;;13.45;18.82;103139.38;5016379;28;20049;-67
2021/04/15 11:38:05;;;;;;;0.25;0.10;;;;;;;13.08;19.26;103138.22;5021596;28;20053;-68
2021/04/15 11:40:39;;;;;;;0.20;0.10;;;;;;;12.66;18.65;103144.88;5019495;28;20033;-69
2021/04/15 11:43:25;;;;;;;0.90;0.20;;;;;;;13.26;19.13;103141.44;5004999;28;20040;-68
2021/04/15 11:45:53;;;;;;;0.60;0.20;;;;;;;13.86;19.17;103137.88;5017153;28;20057;-67
2021/04/15 11:48:26;;;;;;;1.92;0.10;;;;;;;13.67;17.50;103132.94;5023844;28;20041;-69
2021/04/15 11:51:20;;;;;;;0.43;0.10;;;;;;;14.33;17.69;103134.31;5023086;28;20033;-68
2021/04/15 11:53:49;;;;;;;0.60;0.10;;;;;;;14.00;18.23;103130.56;5022210;28;20045;-68
2021/04/15 11:56:23;;;;;;;0.75;0.10;;;;;;;13.83;18.19;103132.66;5021862;28;20676;-67
2021/04/15 11:58:50;;;;;;;0.43;0.10;;;;;;;13.71;18.76;103137.22;5020689;28;20124;-68
2021/04/15 12:01:31;;;;;;;3.28;0.10;;;;;;;13.48;18.96;103137.59;5021042;28;20853;-67
2021/04/15 12:04:05;;;;;;;1.55;0.10;;;;;;;13.97;18.90;103135.03;5022318;28;20080;-68
2021/04/15 12:06:38;;;;;;;0.22;0.10;;;;;;;13.49;17.12;103141.94;5021125;28;20387;-67
2021/04/15 12:09:05;;;;;;;1.05;0.20;;;;;;;13.29;17.36;103136.13;5021433;28;20068;-68
2021/04/15 12:11:35;;;;;;;0.40;0.10;;;;;;;13.37;18.37;103144.78;5019219;28;20052;-67
2021/04/15 12:14:08;;;;;;;0.65;0.10;;;;;;;13.78;17.79;103140.63;5016995;28;20045;-70